Cave City, Kentucky
Current Conditions -  °F | °C
As of 9:35 PM on Friday 28 Nov 2014 (Local Time) from KGLW Reporting Station
Clear Clear  
Wind Chill: 35°   Ceiling: Unl
Heat Index: 40°   Visibility: 10mi
Dew Point: 21°   Wind: 8mph
Humidity: 46%   Direction: 200°SSW
Pressure: 30.1"   Gusts: NA
Location:  37.14°N, 85.96°W
Report Text: KGLW 290335Z AUTO 20007KT 10SM CLR 05/M06 A3010 RMK AO2 T00451063
Loading
Personal Weather Stations






























Interactive Weather Map New forecast layout! Learn more

10-Day Weather Forecast

Advertisements
Track Severe Weather on mobile